sensor_id;sensor_type;location;lat;lon;timestamp;pressure;altitude;pressure_sealevel;temperature;humidity
71476;BME280;59286;59.274;17.974;2023-02-01T00:02:01;98657.69;;;-4.80;83.12
71476;BME280;59286;59.274;17.974;2023-02-01T00:04:27;98707.78;;;-4.47;83.00
71476;BME280;59286;59.274;17.974;2023-02-01T00:06:52;98677.72;;;-4.67;82.54
71476;BME280;59286;59.274;17.974;2023-02-01T00:09:18;98674.63;;;-4.69;82.87
71476;BME280;59286;59.274;17.974;2023-02-01T00:11:44;98744.56;;;-4.22;83.02
71476;BME280;59286;59.274;17.974;2023-02-01T00:14:09;98708.38;;;-4.40;84.02
71476;BME280;59286;59.274;17.974;2023-02-01T00:16:35;98651.06;;;-4.76;83.30
71476;BME280;59286;59.274;17.974;2023-02-01T00:19:12;98674.72;;;-4.59;83.74
71476;BME280;59286;59.274;17.974;2023-02-01T00:21:38;98743.03;;;-4.18;84.26
71476;BME280;59286;59.274;17.974;2023-02-01T00:24:04;98706.81;;;-4.41;84.94
71476;BME280;59286;59.274;17.974;2023-02-01T00:26:35;98739.75;;;-4.13;84.83
71476;BME280;59286;59.274;17.974;2023-02-01T00:29:03;98732.34;;;-4.15;85.14
71476;BME280;59286;59.274;17.974;2023-02-01T00:31:28;98698.38;;;-4.42;85.04
71476;BME280;59286;59.274;17.974;2023-02-01T00:33:54;98709.22;;;-4.30;84.80
71476;BME280;59286;59.274;17.974;2023-02-01T00:36:19;98711.28;;;-4.27;85.18
71476;BME280;59286;59.274;17.974;2023-02-01T00:38:45;98709.31;;;-4.20;84.70
71476;BME280;59286;59.274;17.974;2023-02-01T00:41:13;98727.34;;;-4.00;84.01
71476;BME280;59286;59.274;17.974;2023-02-01T00:43:40;98715.56;;;-4.01;83.56
71476;BME280;59286;59.274;17.974;2023-02-01T00:46:05;98702.13;;;-4.18;84.88
71476;BME280;59286;59.274;17.974;2023-02-01T00:48:31;98720.88;;;-4.12;85.65
71476;BME280;59286;59.274;17.974;2023-02-01T00:51:01;98663.03;;;-4.50;85.52
71476;BME280;59286;59.274;17.974;2023-02-01T00:53:27;98720.13;;;-4.03;84.84
71476;BME280;59286;59.274;17.974;2023-02-01T00:55:52;98701.38;;;-4.18;85.09
71476;BME280;59286;59.274;17.974;2023-02-01T00:58:17;98697.25;;;-4.19;85.22
71476;BME280;59286;59.274;17.974;2023-02-01T01:00:43;98706.78;;;-4.10;84.72
71476;BME280;59286;59.274;17.974;2023-02-01T01:03:09;98700.72;;;-4.04;85.16
71476;BME280;59286;59.274;17.974;2023-02-01T01:05:47;98673.00;;;-4.17;85.50
71476;BME280;59286;59.274;17.974;2023-02-01T01:08:14;98703.34;;;-3.93;85.67
71476;BME280;59286;59.274;17.974;2023-02-01T01:10:40;98667.91;;;-4.12;85.01
71476;BME280;59286;59.274;17.974;2023-02-01T01:13:05;98694.63;;;-3.98;84.96
71476;BME280;59286;59.274;17.974;2023-02-01T01:15:31;98691.78;;;-4.01;85.28
71476;BME280;59286;59.274;17.974;2023-02-01T01:17:56;98695.13;;;-3.96;84.27
71476;BME280;59286;59.274;17.974;2023-02-01T01:20:21;98666.13;;;-4.11;85.00
71476;BME280;59286;59.274;17.974;2023-02-01T01:22:49;98698.97;;;-3.93;84.84
71476;BME280;59286;59.274;17.974;2023-02-01T01:25:15;98716.97;;;-3.83;84.94
71476;BME280;59286;59.274;17.974;2023-02-01T01:27:40;98704.38;;;-3.89;84.56
71476;BME280;59286;59.274;17.974;2023-02-01T01:30:06;98727.53;;;-3.69;84.70
71476;BME280;59286;59.274;17.974;2023-02-01T01:32:32;98692.09;;;-3.87;84.59
71476;BME280;59286;59.274;17.974;2023-02-01T01:34:58;98731.19;;;-3.50;84.53
71476;BME280;59286;59.274;17.974;2023-02-01T01:37:23;98712.75;;;-3.52;84.02
71476;BME280;59286;59.274;17.974;2023-02-01T01:39:48;98687.91;;;-3.62;83.21
71476;BME280;59286;59.274;17.974;2023-02-01T01:42:14;98720.03;;;-3.29;82.70
71476;BME280;59286;59.274;17.974;2023-02-01T01:47:33;98723.13;;;-3.27;82.53
71476;BME280;59286;59.274;17.974;2023-02-01T01:50:01;98731.88;;;-3.18;82.13
71476;BME280;59286;59.274;17.974;2023-02-01T01:52:26;98718.00;;;-3.22;82.29
71476;BME280;59286;59.274;17.974;2023-02-01T01:54:52;98714.97;;;-3.19;82.48
71476;BME280;59286;59.274;17.974;2023-02-01T01:57:23;98734.75;;;-3.05;82.33
71476;BME280;59286;59.274;17.974;2023-02-01T02:02:36;98736.78;;;-3.07;82.09
71476;BME280;59286;59.274;17.974;2023-02-01T02:05:03;98722.91;;;-3.16;81.91
71476;BME280;59286;59.274;17.974;2023-02-01T02:07:32;98706.75;;;-3.21;81.76
71476;BME280;59286;59.274;17.974;2023-02-01T02:09:59;98714.19;;;-3.15;81.88
71476;BME280;59286;59.274;17.974;2023-02-01T02:12:25;98714.47;;;-3.11;82.39
71476;BME280;59286;59.274;17.974;2023-02-01T02:14:50;98698.31;;;-3.17;82.54
71476;BME280;59286;59.274;17.974;2023-02-01T02:23:32;98695.47;;;-3.20;82.86
71476;BME280;59286;59.274;17.974;2023-02-01T02:26:39;98670.06;;;-3.42;82.70
71476;BME280;59286;59.274;17.974;2023-02-01T02:35:07;98723.72;;;-3.10;84.34
71476;BME280;59286;59.274;17.974;2023-02-01T02:37:44;98732.19;;;-2.95;83.49
71476;BME280;59286;59.274;17.974;2023-02-01T02:40:23;98729.34;;;-3.03;83.67
71476;BME280;59286;59.274;17.974;2023-02-01T02:45:55;98717.78;;;-3.16;84.41
71476;BME280;59286;59.274;17.974;2023-02-01T02:49:16;98742.97;;;-2.98;84.31
71476;BME280;59286;59.274;17.974;2023-02-01T02:51:53;98726.06;;;-2.99;84.07
71476;BME280;59286;59.274;17.974;2023-02-01T02:54:42;98742.75;;;-2.81;83.53
71476;BME280;59286;59.274;17.974;2023-02-01T02:57:30;98716.59;;;-2.88;83.44
71476;BME280;59286;59.274;17.974;2023-02-01T03:00:18;98717.63;;;-2.79;82.86
71476;BME280;59286;59.274;17.974;2023-02-01T03:03:04;98724.84;;;-2.71;82.63
71476;BME280;59286;59.274;17.974;2023-02-01T03:05:49;98692.22;;;-2.90;82.72
71476;BME280;59286;59.274;17.974;2023-02-01T03:08:21;98730.75;;;-2.65;82.61
71476;BME280;59286;59.274;17.974;2023-02-01T03:13:52;98728.44;;;-2.57;82.58
71476;BME280;59286;59.274;17.974;2023-02-01T03:16:28;98724.31;;;-2.63;82.43
71476;BME280;59286;59.274;17.974;2023-02-01T03:21:41;98715.59;;;-2.77;83.70
71476;BME280;59286;59.274;17.974;2023-02-01T03:24:23;98699.66;;;-2.89;83.96
71476;BME280;59286;59.274;17.974;2023-02-01T03:29:53;98722.00;;;-2.64;83.55
71476;BME280;59286;59.274;17.974;2023-02-01T03:32:21;98714.34;;;-2.59;83.19
71476;BME280;59286;59.274;17.974;2023-02-01T03:34:48;98709.97;;;-2.64;83.20
71476;BME280;59286;59.274;17.974;2023-02-01T03:37:23;98726.16;;;-2.48;83.54
71476;BME280;59286;59.274;17.974;2023-02-01T03:39:53;98733.88;;;-2.33;82.81
71476;BME280;59286;59.274;17.974;2023-02-01T03:42:37;98727.19;;;-2.24;82.70
71476;BME280;59286;59.274;17.974;2023-02-01T03:45:10;98726.91;;;-2.18;82.58
71476;BME280;59286;59.274;17.974;2023-02-01T03:47:42;98727.69;;;-2.17;82.20
71476;BME280;59286;59.274;17.974;2023-02-01T03:50:11;98736.16;;;-2.22;82.28
71476;BME280;59286;59.274;17.974;2023-02-01T03:52:43;98732.06;;;-2.18;82.18
71476;BME280;59286;59.274;17.974;2023-02-01T03:55:11;98718.72;;;-2.25;82.33
71476;BME280;59286;59.274;17.974;2023-02-01T03:57:43;98734.09;;;-2.20;82.52
71476;BME280;59286;59.274;17.974;2023-02-01T04:00:19;98717.94;;;-2.40;82.76
71476;BME280;59286;59.274;17.974;2023-02-01T04:02:47;98715.13;;;-2.39;82.84
71476;BME280;59286;59.274;17.974;2023-02-01T04:05:12;98705.63;;;-2.38;82.56
71476;BME280;59286;59.274;17.974;2023-02-01T04:07:37;98728.47;;;-2.22;82.93
71476;BME280;59286;59.274;17.974;2023-02-01T04:10:03;98707.19;;;-2.37;82.90
71476;BME280;59286;59.274;17.974;2023-02-01T04:12:29;98697.19;;;-2.39;83.03
71476;BME280;59286;59.274;17.974;2023-02-01T04:14:54;98714.34;;;-2.19;82.59
71476;BME280;59286;59.274;17.974;2023-02-01T04:17:19;98750.00;;;-1.87;82.33
71476;BME280;59286;59.274;17.974;2023-02-01T04:19:45;98707.44;;;-2.14;82.42
71476;BME280;59286;59.274;17.974;2023-02-01T04:22:10;98754.63;;;-1.79;82.50
71476;BME280;59286;59.274;17.974;2023-02-01T04:24:37;98743.34;;;-1.88;82.35
71476;BME280;59286;59.274;17.974;2023-02-01T04:27:02;98745.38;;;-1.80;82.22
71476;BME280;59286;59.274;17.974;2023-02-01T04:29:28;98753.84;;;-1.75;82.38
71476;BME280;59286;59.274;17.974;2023-02-01T04:31:53;98751.53;;;-1.71;82.12
71476;BME280;59286;59.274;17.974;2023-02-01T04:34:19;98701.25;;;-2.03;81.84
71476;BME280;59286;59.274;17.974;2023-02-01T04:36:44;98712.28;;;-1.97;81.49
71476;BME280;59286;59.274;17.974;2023-02-01T04:39:09;98709.22;;;-2.09;81.96
71476;BME280;59286;59.274;17.974;2023-02-01T04:41:35;98689.47;;;-2.29;82.72
71476;BME280;59286;59.274;17.974;2023-02-01T04:44:00;98748.97;;;-1.86;82.47
71476;BME280;59286;59.274;17.974;2023-02-01T04:46:26;98704.34;;;-2.16;82.44
71476;BME280;59286;59.274;17.974;2023-02-01T04:48:51;98718.97;;;-2.11;83.29
71476;BME280;59286;59.274;17.974;2023-02-01T04:51:17;98680.47;;;-2.31;83.77
71476;BME280;59286;59.274;17.974;2023-02-01T04:53:44;98691.78;;;-2.27;83.42
71476;BME280;59286;59.274;17.974;2023-02-01T04:56:09;98756.66;;;-1.86;83.71
71476;BME280;59286;59.274;17.974;2023-02-01T04:58:34;98716.66;;;-2.08;84.11
71476;BME280;59286;59.274;17.974;2023-02-01T05:01:02;98730.25;;;-2.02;84.04
71476;BME280;59286;59.274;17.974;2023-02-01T05:03:30;98713.31;;;-2.23;84.57
71476;BME280;59286;59.274;17.974;2023-02-01T05:05:55;98704.88;;;-2.34;84.44
71476;BME280;59286;59.274;17.974;2023-02-01T05:08:21;98719.75;;;-2.16;84.34
71476;BME280;59286;59.274;17.974;2023-02-01T05:10:47;98760.53;;;-1.84;83.72
71476;BME280;59286;59.274;17.974;2023-02-01T05:13:13;98720.25;;;-2.09;84.29
71476;BME280;59286;59.274;17.974;2023-02-01T05:15:57;98736.66;;;-1.94;84.24
71476;BME280;59286;59.274;17.974;2023-02-01T05:18:22;98762.59;;;-1.81;84.18
71476;BME280;59286;59.274;17.974;2023-02-01T05:20:47;98729.47;;;-1.98;83.58
71476;BME280;59286;59.274;17.974;2023-02-01T05:23:13;98752.84;;;-1.89;83.99
71476;BME280;59286;59.274;17.974;2023-02-01T05:25:38;98735.13;;;-2.01;83.93
71476;BME280;59286;59.274;17.974;2023-02-01T05:28:03;98790.06;;;-1.66;84.41
71476;BME280;59286;59.274;17.974;2023-02-01T05:30:29;98781.81;;;-1.63;83.92
71476;BME280;59286;59.274;17.974;2023-02-01T05:32:54;98770.25;;;-1.56;83.27
71476;BME280;59286;59.274;17.974;2023-02-01T05:35:20;98770.75;;;-1.49;82.64
71476;BME280;59286;59.274;17.974;2023-02-01T05:37:45;98792.06;;;-1.38;83.21
71476;BME280;59286;59.274;17.974;2023-02-01T05:40:11;98792.06;;;-1.38;83.32
71476;BME280;59286;59.274;17.974;2023-02-01T05:42:36;98773.31;;;-1.54;84.01
71476;BME280;59286;59.274;17.974;2023-02-01T05:45:02;98794.63;;;-1.43;84.17
71476;BME280;59286;59.274;17.974;2023-02-01T05:47:30;98802.84;;;-1.41;83.90
71476;BME280;59286;59.274;17.974;2023-02-01T05:49:55;98801.81;;;-1.35;83.86
71476;BME280;59286;59.274;17.974;2023-02-01T05:52:21;98784.09;;;-1.37;83.30
71476;BME280;59286;59.274;17.974;2023-02-01T05:54:47;98790.25;;;-1.33;83.37
71476;BME280;59286;59.274;17.974;2023-02-01T05:57:12;98769.47;;;-1.51;83.58
71476;BME280;59286;59.274;17.974;2023-02-01T05:59:38;98775.63;;;-1.52;84.37
71476;BME280;59286;59.274;17.974;2023-02-01T06:02:07;98768.97;;;-1.58;84.26
71476;BME280;59286;59.274;17.974;2023-02-01T06:04:33;98767.19;;;-1.78;84.76
71476;BME280;59286;59.274;17.974;2023-02-01T06:06:59;98804.91;;;-1.43;84.44
71476;BME280;59286;59.274;17.974;2023-02-01T06:09:25;98787.72;;;-1.58;84.43
71476;BME280;59286;59.274;17.974;2023-02-01T06:11:50;98737.69;;;-1.85;84.55
71476;BME280;59286;59.274;17.974;2023-02-01T06:14:16;98755.66;;;-1.75;85.13
71476;BME280;59286;59.274;17.974;2023-02-01T06:16:41;98806.94;;;-1.45;84.78
71476;BME280;59286;59.274;17.974;2023-02-01T06:19:06;98793.59;;;-1.47;85.14
71476;BME280;59286;59.274;17.974;2023-02-01T06:21:31;98777.19;;;-1.61;85.32
71476;BME280;59286;59.274;17.974;2023-02-01T06:23:58;98762.56;;;-1.71;84.95
71476;BME280;59286;59.274;17.974;2023-02-01T06:26:24;98804.63;;;-1.32;84.75
71476;BME280;59286;59.274;17.974;2023-02-01T06:28:50;98798.69;;;-1.32;84.44
71476;BME280;59286;59.274;17.974;2023-02-01T06:31:15;98772.53;;;-1.44;84.35
71476;BME280;59286;59.274;17.974;2023-02-01T06:33:40;98808.44;;;-1.19;83.89
71476;BME280;59286;59.274;17.974;2023-02-01T06:36:09;98796.13;;;-1.22;84.07
71476;BME280;59286;59.274;17.974;2023-02-01T06:38:35;98809.47;;;-1.15;84.20
71476;BME280;59286;59.274;17.974;2023-02-01T06:41:00;98782.03;;;-1.35;84.52
71476;BME280;59286;59.274;17.974;2023-02-01T06:43:27;98790.47;;;-1.24;85.35
71476;BME280;59286;59.274;17.974;2023-02-01T06:45:53;98790.47;;;-1.24;85.68
71476;BME280;59286;59.274;17.974;2023-02-01T06:48:18;98773.53;;;-1.30;85.25
71476;BME280;59286;59.274;17.974;2023-02-01T06:50:44;98766.09;;;-1.37;85.00
71476;BME280;59286;59.274;17.974;2023-02-01T06:53:10;98814.28;;;-0.99;84.94
71476;BME280;59286;59.274;17.974;2023-02-01T06:55:35;98787.38;;;-1.16;85.17
71476;BME280;59286;59.274;17.974;2023-02-01T06:58:01;98778.38;;;-1.19;84.91
71476;BME280;59286;59.274;17.974;2023-02-01T07:00:28;98793.25;;;-1.06;84.77
71476;BME280;59286;59.274;17.974;2023-02-01T07:02:54;98813.50;;;-0.94;84.59
71476;BME280;59286;59.274;17.974;2023-02-01T07:05:20;98806.06;;;-0.95;84.66
71476;BME280;59286;59.274;17.974;2023-02-01T07:07:46;98783.75;;;-1.10;84.67
71476;BME280;59286;59.274;17.974;2023-02-01T07:10:12;98794.28;;;-1.07;84.64
71476;BME280;59286;59.274;17.974;2023-02-01T07:12:37;98768.34;;;-1.15;84.50
71476;BME280;59286;59.274;17.974;2023-02-01T07:15:03;98823.53;;;-0.92;84.63
71476;BME280;59286;59.274;17.974;2023-02-01T07:17:29;98807.09;;;-0.97;84.37
71476;BME280;59286;59.274;17.974;2023-02-01T07:19:55;98771.44;;;-1.18;84.68
71476;BME280;59286;59.274;17.974;2023-02-01T07:22:22;98814.06;;;-0.97;85.17
71476;BME280;59286;59.274;17.974;2023-02-01T07:24:48;98792.00;;;-1.18;85.57
71476;BME280;59286;59.274;17.974;2023-02-01T07:27:13;98811.00;;;-1.09;85.69
71476;BME280;59286;59.274;17.974;2023-02-01T07:29:38;98789.47;;;-1.33;86.15
71476;BME280;59286;59.274;17.974;2023-02-01T07:32:04;98830.03;;;-1.10;86.43
71476;BME280;59286;59.274;17.974;2023-02-01T07:34:29;98832.59;;;-1.10;87.01
71476;BME280;59286;59.274;17.974;2023-02-01T07:36:56;98816.69;;;-1.22;87.22
71476;BME280;59286;59.274;17.974;2023-02-01T07:39:21;98835.41;;;-1.12;87.34
71476;BME280;59286;59.274;17.974;2023-02-01T07:41:46;98762.00;;;-1.53;87.36
71476;BME280;59286;59.274;17.974;2023-02-01T07:44:12;98786.91;;;-1.38;87.12
71476;BME280;59286;59.274;17.974;2023-02-01T07:46:37;98776.13;;;-1.35;87.56
71476;BME280;59286;59.274;17.974;2023-02-01T07:49:04;98821.25;;;-1.04;87.35
71476;BME280;59286;59.274;17.974;2023-02-01T07:51:29;98764.56;;;-1.33;87.10
71476;BME280;59286;59.274;17.974;2023-02-01T07:53:55;98825.56;;;-0.89;87.23
71476;BME280;59286;59.274;17.974;2023-02-01T07:56:20;98798.63;;;-1.02;87.11
71476;BME280;59286;59.274;17.974;2023-02-01T07:58:51;98848.38;;;-0.68;87.10
71476;BME280;59286;59.274;17.974;2023-02-01T08:01:20;98783.22;;;-1.07;88.23
71476;BME280;59286;59.274;17.974;2023-02-01T08:03:53;98817.63;;;-0.88;88.87
71476;BME280;59286;59.274;17.974;2023-02-01T08:06:20;98757.31;;;-1.21;88.67
71476;BME280;59286;59.274;17.974;2023-02-01T08:08:47;98773.19;;;-1.04;88.72
71476;BME280;59286;59.274;17.974;2023-02-01T08:11:16;98852.19;;;-0.55;88.35
71476;BME280;59286;59.274;17.974;2023-02-01T08:13:42;98784.75;;;-1.01;88.46
71476;BME280;59286;59.274;17.974;2023-02-01T08:16:10;98805.97;;;-0.75;88.43
71476;BME280;59286;59.274;17.974;2023-02-01T08:18:36;98793.94;;;-0.85;88.60
71476;BME280;59286;59.274;17.974;2023-02-01T08:21:16;98822.59;;;-0.58;88.51
71476;BME280;59286;59.274;17.974;2023-02-01T08:23:43;98777.72;;;-0.80;88.26
71476;BME280;59286;59.274;17.974;2023-02-01T08:26:21;98825.66;;;-0.46;88.00
71476;BME280;59286;59.274;17.974;2023-02-01T08:28:51;98820.03;;;-0.53;87.49
71476;BME280;59286;59.274;17.974;2023-02-01T08:31:19;98829.56;;;-0.58;87.82
71476;BME280;59286;59.274;17.974;2023-02-01T08:33:49;98776.44;;;-0.83;87.21
71476;BME280;59286;59.274;17.974;2023-02-01T08:36:15;98838.72;;;-0.37;87.48
71476;BME280;59286;59.274;17.974;2023-02-01T08:38:41;98834.06;;;-0.35;86.91
71476;BME280;59286;59.274;17.974;2023-02-01T08:41:09;98774.34;;;-0.76;86.72
71476;BME280;59286;59.274;17.974;2023-02-01T08:43:35;98802.53;;;-0.51;87.23
71476;BME280;59286;59.274;17.974;2023-02-01T08:46:01;98785.59;;;-0.62;87.21
71476;BME280;59286;59.274;17.974;2023-02-01T08:48:26;98800.44;;;-0.49;86.98
71476;BME280;59286;59.274;17.974;2023-02-01T08:50:52;98812.28;;;-0.48;87.53
71476;BME280;59286;59.274;17.974;2023-02-01T08:53:20;98810.00;;;-0.59;87.85
71476;BME280;59286;59.274;17.974;2023-02-01T08:55:46;98831.84;;;-0.47;88.40
71476;BME280;59286;59.274;17.974;2023-02-01T08:58:12;98816.72;;;-0.58;88.60
71476;BME280;59286;59.274;17.974;2023-02-01T09:00:39;98857.22;;;-0.30;88.46
71476;BME280;59286;59.274;17.974;2023-02-01T09:03:05;98807.16;;;-0.58;88.28
71476;BME280;59286;59.274;17.974;2023-02-01T09:05:30;98806.13;;;-0.52;88.10
71476;BME280;59286;59.274;17.974;2023-02-01T09:07:56;98840.97;;;-0.26;88.46
71476;BME280;59286;59.274;17.974;2023-02-01T09:10:21;98770.72;;;-0.70;88.31
71476;BME280;59286;59.274;17.974;2023-02-01T09:12:47;98836.13;;;-0.32;88.40
71476;BME280;59286;59.274;17.974;2023-02-01T09:15:12;98806.38;;;-0.53;88.60
71476;BME280;59286;59.274;17.974;2023-02-01T09:17:37;98816.28;;;-0.32;88.27
71476;BME280;59286;59.274;17.974;2023-02-01T09:20:04;98772.16;;;-0.54;88.05
71476;BME280;59286;59.274;17.974;2023-02-01T09:22:29;98832.69;;;-0.18;88.00
71476;BME280;59286;59.274;17.974;2023-02-01T09:24:55;98807.78;;;-0.27;88.16
71476;BME280;59286;59.274;17.974;2023-02-01T09:27:21;98813.13;;;-0.19;87.78
71476;BME280;59286;59.274;17.974;2023-02-01T09:29:50;98813.66;;;-0.22;87.99
71476;BME280;59286;59.274;17.974;2023-02-01T09:32:20;98824.41;;;-0.10;88.54
71476;BME280;59286;59.274;17.974;2023-02-01T09:34:45;98822.69;;;-0.24;88.57
71476;BME280;59286;59.274;17.974;2023-02-01T09:37:11;98830.66;;;-0.26;89.14
71476;BME280;59286;59.274;17.974;2023-02-01T09:39:36;98823.53;;;-0.34;89.81
71476;BME280;59286;59.274;17.974;2023-02-01T09:47:50;98851.91;;;-0.05;89.37
71476;BME280;59286;59.274;17.974;2023-02-01T09:50:21;98858.00;;;0.09;89.46
71476;BME280;59286;59.274;17.974;2023-02-01T09:53:04;98842.38;;;-0.05;89.56
71476;BME280;59286;59.274;17.974;2023-02-01T09:55:41;98860.97;;;0.26;88.85
71476;BME280;59286;59.274;17.974;2023-02-01T09:58:16;98869.22;;;0.23;89.36
71476;BME280;59286;59.274;17.974;2023-02-01T10:00:53;98833.59;;;0.02;89.59
71476;BME280;59286;59.274;17.974;2023-02-01T10:03:20;98866.59;;;0.33;88.91
71476;BME280;59286;59.274;17.974;2023-02-01T10:17:14;98878.53;;;0.53;88.42
71476;BME280;59286;59.274;17.974;2023-02-01T10:25:26;98819.00;;;0.26;88.64
71476;BME280;59286;59.274;17.974;2023-02-01T10:27:54;98873.09;;;0.59;88.04
71476;BME280;59286;59.274;17.974;2023-02-01T10:30:28;98857.47;;;0.46;89.06
71476;BME280;59286;59.274;17.974;2023-02-01T10:32:57;98826.94;;;0.29;88.57
71476;BME280;59286;59.274;17.974;2023-02-01T10:35:31;98835.47;;;0.25;89.46
71476;BME280;59286;59.274;17.974;2023-02-01T10:38:01;98833.91;;;0.29;89.05
71476;BME280;59286;59.274;17.974;2023-02-01T10:40:28;98845.66;;;0.40;88.88
71476;BME280;59286;59.274;17.974;2023-02-01T10:43:01;98828.75;;;0.29;88.66
71476;BME280;59286;59.274;17.974;2023-02-01T10:45:29;98816.25;;;0.12;88.84
71476;BME280;59286;59.274;17.974;2023-02-01T10:47:57;98856.00;;;0.35;88.73
71476;BME280;59286;59.274;17.974;2023-02-01T10:50:34;98899.31;;;0.66;89.34
71476;BME280;59286;59.274;17.974;2023-02-01T10:53:09;98843.06;;;0.40;89.08
71476;BME280;59286;59.274;17.974;2023-02-01T10:55:40;98893.31;;;0.71;88.73
71476;BME280;59286;59.274;17.974;2023-02-01T10:58:25;98831.25;;;0.39;88.53
71476;BME280;59286;59.274;17.974;2023-02-01T11:00:54;98821.25;;;0.32;88.06
71476;BME280;59286;59.274;17.974;2023-02-01T11:06:10;98867.50;;;0.76;88.26
71476;BME280;59286;59.274;17.974;2023-02-01T11:08:51;98850.38;;;0.61;88.11
71476;BME280;59286;59.274;17.974;2023-02-01T11:11:18;98814.47;;;0.41;88.31
71476;BME280;59286;59.274;17.974;2023-02-01T11:13:43;98865.44;;;0.78;87.71
71476;BME280;59286;59.274;17.974;2023-02-01T11:16:13;98852.91;;;0.66;87.43
71476;BME280;59286;59.274;17.974;2023-02-01T11:18:40;98915.88;;;0.89;87.67
71476;BME280;59286;59.274;17.974;2023-02-01T11:21:07;98862.03;;;0.54;87.75
71476;BME280;59286;59.274;17.974;2023-02-01T11:23:40;98838.78;;;0.30;87.51
71476;BME280;59286;59.274;17.974;2023-02-01T11:26:20;98912.38;;;0.75;88.34
71476;BME280;59286;59.274;17.974;2023-02-01T11:29:13;98859.53;;;0.44;88.11
71476;BME280;59286;59.274;17.974;2023-02-01T11:31:42;98838.09;;;0.20;87.86
71476;BME280;59286;59.274;17.974;2023-02-01T11:34:16;98855.50;;;0.33;88.46
71476;BME280;59286;59.274;17.974;2023-02-01T11:36:45;98854.66;;;0.42;88.37
71476;BME280;59286;59.274;17.974;2023-02-01T11:39:23;98913.00;;;0.90;88.15
71476;BME280;59286;59.274;17.974;2023-02-01T11:42:17;98909.13;;;0.93;87.15
71476;BME280;59286;59.274;17.974;2023-02-01T11:44:46;98873.88;;;0.55;88.14
71476;BME280;59286;59.274;17.974;2023-02-01T11:47:22;98910.22;;;0.87;87.73
71476;BME280;59286;59.274;17.974;2023-02-01T11:49:49;98845.13;;;0.43;87.84
71476;BME280;59286;59.274;17.974;2023-02-01T11:52:24;98928.25;;;0.87;87.25
71476;BME280;59286;59.274;17.974;2023-02-01T11:57:47;98885.75;;;0.56;87.30
71476;BME280;59286;59.274;17.974;2023-02-01T12:03:20;98903.69;;;0.66;87.97
71476;BME280;59286;59.274;17.974;2023-02-01T12:25:05;98898.72;;;0.74;87.77
71476;BME280;59286;59.274;17.974;2023-02-01T12:33:17;98910.63;;;0.70;87.97
71476;BME280;59286;59.274;17.974;2023-02-01T12:35:52;98948.84;;;0.92;87.92
71476;BME280;59286;59.274;17.974;2023-02-01T12:46:41;98928.31;;;0.82;88.27
71476;BME280;59286;59.274;17.974;2023-02-01T12:49:17;98958.31;;;1.02;87.99
71476;BME280;59286;59.274;17.974;2023-02-01T12:51:49;98931.13;;;0.85;88.60
71476;BME280;59286;59.274;17.974;2023-02-01T12:57:05;98947.97;;;0.73;89.54
71476;BME280;59286;59.274;17.974;2023-02-01T12:59:36;98929.56;;;0.56;89.59
71476;BME280;59286;59.274;17.974;2023-02-01T13:02:22;98929.28;;;0.57;89.04
71476;BME280;59286;59.274;17.974;2023-02-01T13:04:59;98916.97;;;0.49;89.17
71476;BME280;59286;59.274;17.974;2023-02-01T13:10:45;98964.03;;;0.65;89.49
71476;BME280;59286;59.274;17.974;2023-02-01T13:15:57;98952.16;;;0.64;89.13
71476;BME280;59286;59.274;17.974;2023-02-01T13:18:25;98960.84;;;0.73;89.04
71476;BME280;59286;59.274;17.974;2023-02-01T13:21:17;98972.16;;;0.77;88.33
71476;BME280;59286;59.274;17.974;2023-02-01T13:23:46;98968.94;;;0.61;88.79
71476;BME280;59286;59.274;17.974;2023-02-01T13:26:13;98977.19;;;0.63;88.82
71476;BME280;59286;59.274;17.974;2023-02-01T13:28:52;98968.97;;;0.56;88.49
71476;BME280;59286;59.274;17.974;2023-02-01T13:33:55;98936.66;;;0.30;88.88
71476;BME280;59286;59.274;17.974;2023-02-01T13:41:57;98937.03;;;0.14;89.21
71476;BME280;59286;59.274;17.974;2023-02-01T13:44:31;98918.00;;;0.15;89.15
71476;BME280;59286;59.274;17.974;2023-02-01T13:47:02;98950.13;;;0.22;89.73
71476;BME280;59286;59.274;17.974;2023-02-01T13:49:30;99015.31;;;0.66;89.13
71476;BME280;59286;59.274;17.974;2023-02-01T13:51:58;98928.00;;;0.16;89.10
71476;BME280;59286;59.274;17.974;2023-02-01T13:54:36;99010.47;;;0.55;88.67
71476;BME280;59286;59.274;17.974;2023-02-01T13:57:04;98957.16;;;0.07;88.92
71476;BME280;59286;59.274;17.974;2023-02-01T14:10:50;99038.31;;;0.53;87.94
71476;BME280;59286;59.274;17.974;2023-02-01T14:13:34;98992.41;;;0.16;88.41
71476;BME280;59286;59.274;17.974;2023-02-01T14:21:30;99052.38;;;0.32;89.50
71476;BME280;59286;59.274;17.974;2023-02-01T14:24:01;99018.00;;;-0.03;89.50
71476;BME280;59286;59.274;17.974;2023-02-01T14:31:39;99079.19;;;0.26;89.67
71476;BME280;59286;59.274;17.974;2023-02-01T14:34:20;99039.16;;;-0.21;88.83
71476;BME280;59286;59.274;17.974;2023-02-01T14:36:51;99046.84;;;-0.11;89.27
71476;BME280;59286;59.274;17.974;2023-02-01T14:44:44;99028.09;;;-0.31;89.56
71476;BME280;59286;59.274;17.974;2023-02-01T14:49:52;99068.75;;;-0.13;88.66
71476;BME280;59286;59.274;17.974;2023-02-01T14:52:22;99009.09;;;-0.50;88.96
71476;BME280;59286;59.274;17.974;2023-02-01T14:54:54;99058.69;;;-0.15;88.99
71476;BME280;59286;59.274;17.974;2023-02-01T14:57:23;99080.81;;;-0.04;88.98
71476;BME280;59286;59.274;17.974;2023-02-01T14:59:57;99054.88;;;-0.27;88.84
71476;BME280;59286;59.274;17.974;2023-02-01T15:02:31;99034.84;;;-0.50;89.11
71476;BME280;59286;59.274;17.974;2023-02-01T15:05:01;99053.13;;;-0.47;89.50
71476;BME280;59286;59.274;17.974;2023-02-01T15:07:27;99019.44;;;-0.60;89.23
71476;BME280;59286;59.274;17.974;2023-02-01T15:09:56;99036.63;;;-0.46;88.60
71476;BME280;59286;59.274;17.974;2023-02-01T15:12:25;99060.56;;;-0.45;88.78
71476;BME280;59286;59.274;17.974;2023-02-01T15:15:22;99074.19;;;-0.30;88.94
71476;BME280;59286;59.274;17.974;2023-02-01T15:17:59;99048.22;;;-0.48;88.83
71476;BME280;59286;59.274;17.974;2023-02-01T15:20:32;99060.28;;;-0.39;88.97
71476;BME280;59286;59.274;17.974;2023-02-01T15:23:00;99083.44;;;-0.29;88.80
71476;BME280;59286;59.274;17.974;2023-02-01T15:25:31;99105.28;;;-0.11;88.26